x

Frying Pan Shoals, Nc Buoy (41013) Wave Buoy

4:50 - Fri 24th Feb 2017 All times are EST. -5 hours from GMT.

  • Sig Wave height 8.2ft
  • Swell Direction
  • Peak Period 10s
  • Average Period 7s
  • Wind
    13mph, 20mph gusts
  • Sea Temp 72°f
  • Luft Temp 71°f
  • Sea Pressure 1010.9mb
  • Frying Pan Shoals, Nc Buoy
  • Frying Pan Shoals, Nc Buoy

More Historic Weather Station data

Upgrade to MSW Pro to gain access to the past 30 days of data for over 8000 Wavebouys and Weather Stations around the globe.

Join Pro

Comparision Forecast

View Surf forecast
   
Fr 02/24 4:50 8ft 10s 7s 13 20 mph 1010.9mb 72f 71f
4:40 8ft  -  7s 16 18 mph 1010.8mb 72f 71f
4:30  -   -   -  16 18 mph 1010.9mb 72f 71f
4:20  -   -   -  16 20 mph 1011mb 72f 71f
4:10  -   -   -  16 18 mph 1010.9mb 72f 71f
4:00  -   -   -  16 20 mph 1010.9mb 72f 71f
3:50 7.5ft 9s 6s 18 22 mph 1010.9mb 72f 71f
3:40 7.5ft  -  6s 16 20 mph 1010.8mb 72f 70f
3:30  -   -   -  16 20 mph 1011mb 72f 71f
3:20  -   -   -  11 20 mph 1010.9mb 72f 70f
3:10  -   -   -  11 16 mph 1011mb 72f 70f
3:00  -   -   -  11 18 mph 1011mb 72f 70f
2:50 7.5ft 10s 6s 11 16 mph 1011mb 72f 70f
2:40 7.5ft  -  6s 11 13 mph 1011mb 72f 70f
2:30  -   -   -  11 13 mph 1011.1mb 72f 70f
2:20  -   -   -  11 16 mph 1011.3mb 72f 70f
2:10  -   -   -  13 18 mph 1011.1mb 72f 70f
2:00  -   -   -  13 18 mph 1011mb 72f 71f
1:50 8ft 9s 6s 16 20 mph 1011.1mb 72f 71f
1:40 8ft  -  6s 18 22 mph 1011.1mb 71f 71f
1:30  -   -   -  16 22 mph 1011.1mb 71f 71f
1:20  -   -   -  16 20 mph 1011.1mb 71f 71f
1:10  -   -   -  13 18 mph 1011.1mb 71f 71f
1:00  -   -   -  11 18 mph 1011.1mb 71f 71f
12:50 8.5ft 9s 7s 13 18 mph 1011.1mb 71f 71f
12:40  -   -   -  13 18 mph 1011.3mb 71f 71f
12:30  -   -   -  13 18 mph 1011.4mb 71f 71f
12:20  -   -   -  16 18 mph 1011.4mb 71f 70f
12:10  -   -   -  16 22 mph 1011.5mb 71f 70f
12:00  -   -   -  20 25 mph 1011.6mb 71f 70f
Do 02/23 11:50 7.5ft 9s 6s 20 27 mph 1011.6mb 71f 71f
11:40 7.5ft  -  6s 20 25 mph 1011.6mb 71f 71f
11:30  -   -   -  18 22 mph 1011.8mb 71f 71f
11:20  -   -   -  18 22 mph 1011.9mb 71f 71f
11:10  -   -   -  16 20 mph 1011.9mb 71f 71f
11:00  -   -   -  16 20 mph 1011.9mb 71f 71f
10:50 8ft 8s 7s 16 20 mph 1012mb 71f 71f
10:40 8ft  -  7s 16 20 mph 1012mb 71f 71f
10:30  -   -   -  18 20 mph 1012mb 71f 71f
10:20  -   -   -  18 22 mph 1011.9mb 71f 71f
10:10  -   -   -  18 22 mph 1011.9mb 71f 71f
10:00  -   -   -  16 22 mph 1011.8mb 71f 71f
9:50 7.5ft 8s 7s 16 20 mph 1011.6mb 71f 71f
9:40 7.5ft  -  7s 11 16 mph 1011.6mb 70f 71f
9:30  -   -   -  11 16 mph 1011.6mb 70f 71f
9:20  -   -   -  13 18 mph 1011.6mb 70f 71f
9:10  -   -   -  13 16 mph 1011.6mb 70f 71f
9:00  -   -   -  13 18 mph 1011.5mb 70f 71f
8:50 7ft 8s 6s 13 18 mph 1011.5mb 71f 71f
8:40  -   -   -  13 16 mph 1011.5mb 71f 71f
8:20  -   -   -  16 20 mph 1011.4mb 71f 71f
8:10  -   -   -  16 20 mph 1011.5mb 71f 71f
8:00  -   -   -  16 20 mph - 71f 71f
7:50 7ft 8s 6s 16 22 mph 1011.4mb 71f 71f
7:40 7ft  -  6s 18 22 mph 1011.4mb 71f 71f
7:30  -   -   -  18 22 mph 1011.4mb 71f 71f
7:20  -   -   -  18 25 mph 1011.1mb 71f 71f
7:10  -   -   -  18 22 mph 1011.1mb 71f 71f
7:00  -   -   -  18 25 mph 1011mb 71f 71f
6:50 7ft 8s 6s 18 22 mph 1010.6mb 71f 71f
6:40 7ft  -  6s 16 20 mph 1010.6mb 71f 71f
6:30  -   -   -  18 22 mph 1010.5mb 71f 71f
6:20  -   -   -  18 22 mph 1010.5mb 71f 71f
6:10  -   -   -  18 22 mph 1010.5mb 71f 71f
6:00  -   -   -  20 25 mph 1010.5mb 71f 71f
5:50 7ft  -  6s 20 25 mph - 71f 71f
5:40 7ft  -  6s 20 25 mph 1010.5mb 71f 71f
5:30  -   -   -  18 22 mph 1010.5mb 71f 71f
5:20  -   -   -  18 25 mph 1010.4mb 71f 71f
5:10  -   -   -  18 25 mph 1010.3mb 71f 71f
5:00  -   -   -  18 22 mph 1010.4mb 71f 71f
4:50 6.5ft 8s 6s 18 22 mph 1010.3mb 70f 71f
4:40 6.5ft  -  6s 16 20 mph 1010.3mb 70f 71f
4:30  -   -   -  16 18 mph 1010.3mb 70f 71f
4:20  -   -   -  16 18 mph 1010.3mb 70f 71f
4:10  -   -   -  16 20 mph 1010.3mb 70f 71f
4:00  -   -   -  13 18 mph 1010.3mb 70f 71f
3:50 6ft 8s 5s 13 18 mph 1010.3mb 70f 71f
3:40 6ft  -  5s 13 18 mph 1010.3mb 70f 71f
3:30  -   -   -  16 20 mph 1010.3mb 70f 71f
3:20  -   -   -  16 20 mph 1010.3mb 70f 71f
3:10  -   -   -  16 20 mph 1010.3mb 70f 71f
3:00  -   -   -  16 20 mph 1010.4mb 70f 71f
2:50 6.5ft 7s 5s 16 20 mph 1010.5mb 70f 71f
2:40 6.5ft  -  5s 16 20 mph 1010.6mb 70f 71f
2:30  -   -   -  16 20 mph 1010.6mb 70f 70f
2:20  -   -   -  13 18 mph 1010.8mb 70f 70f
2:10  -   -   -  16 20 mph 1011mb 70f 70f
2:00  -   -   -  16 18 mph 1011mb 70f 70f
1:50 6ft 7s 5s 16 22 mph 1011.1mb 70f 71f
1:40  -   -   -  18 22 mph 1011.3mb 70f 71f
1:30  -   -   -  18 20 mph 1011.4mb 70f 71f
1:20  -   -   -  16 20 mph 1011.5mb 70f 70f
1:10  -   -   -  16 20 mph 1011.6mb 70f 70f
1:00  -   -   -  18 20 mph 1011.8mb 70f 70f
12:50 6ft 7s 5s 18 22 mph 1011.9mb 70f 70f
12:40 6ft  -  5s 18 22 mph 1012mb 70f 69f
12:30  -   -   -  16 20 mph 1012.1mb 70f 68f
12:20  -   -   -  18 20 mph 1012.4mb 70f 68f
12:10  -   -   -  20 25 mph 1012.5mb 70f 68f
12:00  -   -   -  20 25 mph 1012.6mb 69f 69f
11:50 6ft 7s 5s 18 25 mph 1012.6mb 69f 70f
11:40 6ft  -  5s 20 25 mph 1012.6mb 69f 70f
11:30  -   -   -  18 22 mph 1012.6mb 69f 70f
11:20  -   -   -  16 20 mph 1012.8mb 69f 71f
11:10  -   -   -  13 20 mph 1013mb 69f 71f
11:00  -   -   -  13 16 mph 1013mb 69f 71f
10:50 5.5ft 7s 5s 13 16 mph 1013mb 69f 71f
10:40 5.5ft  -  5s 13 18 mph 1013mb 69f 71f
10:30  -   -   -  16 18 mph 1013mb 69f 71f
10:20  -   -   -  13 18 mph 1013mb 69f 71f
10:10  -   -   -  13 18 mph 1013mb 69f 71f
10:00  -   -   -  16 20 mph 1013mb 69f 71f
9:50 5ft 7s 5s 16 18 mph 1013mb 69f 70f
9:40 5ft  -  5s 16 18 mph 1013mb 69f 70f
9:30  -   -   -  16 18 mph 1012.8mb 69f 70f
9:20  -   -   -  16 20 mph 1012.6mb 69f 70f
9:10  -   -   -  16 22 mph 1012.5mb 69f 70f
9:00  -   -   -  16 20 mph 1012.5mb 69f 70f
8:50 5ft 7s 5s 16 22 mph 1012.3mb 69f 70f
8:40 5ft  -  5s 16 20 mph 1012.1mb 69f 70f
8:30  -   -   -  18 22 mph 1012.1mb 69f 70f
8:20  -   -   -  18 22 mph 1012mb 69f 70f
8:10  -   -   -  16 20 mph 1012mb 69f 70f
8:00  -   -   -  16 20 mph 1011.9mb 69f 70f
7:50 5ft 7s 5s 16 20 mph 1011.9mb 69f 70f
7:40 5ft  -  5s 16 20 mph 1011.9mb 69f 70f
7:30  -   -   -  18 20 mph 1011.8mb 69f 70f
7:20  -   -   -  16 20 mph 1011.8mb 69f 70f
7:10  -   -   -  16 20 mph 1011.8mb 69f 70f
7:00  -   -   -  16 20 mph 1011.6mb 69f 70f
6:50 4.5ft 7s 5s 11 18 mph 1011.6mb 69f 69f
6:40 4.5ft  -  5s 11 16 mph 1011.6mb 69f 69f
6:30  -   -   -  13 16 mph 1011.6mb 70f 69f
6:20  -   -   -  13 16 mph 1011.6mb 70f 69f
6:10  -   -   -  18 22 mph 1011.6mb 70f 69f
6:00  -   -   -  18 22 mph 1011.5mb 70f 69f
5:50 5ft 6s 5s 18 22 mph 1011.4mb 70f 69f
5:40 5ft  -  5s 11 18 mph 1011.4mb 70f 68f
5:30  -   -   -  16 20 mph 1011.4mb 70f 69f
5:20  -   -   -  16 22 mph 1011.1mb 70f 70f
5:10  -   -   -  16 18 mph 1011mb 70f 70f
5:00  -   -   -  11 18 mph 1011mb 70f 69f
4:50 5.5ft 7s 5s 11 16 mph 1011mb 70f 69f
4:40  -   -   -  16 20 mph 1011.1mb 70f 69f
3:50 5ft 7s 5s 9 13 mph 1011mb 70f 67f
3:40  -   -   -  13 16 mph 1011mb 70f 68f
2:50 5ft 6s 5s 16 20 mph 1011.1mb 70f 69f
2:40  -   -   -  16 20 mph 1011.3mb 70f 69f
1:50 5ft 6s 5s 18 22 mph 1011.5mb 70f 69f
1:40  -   -   -  18 22 mph - 70f 69f
12:50 4.5ft 5s 5s 18 22 mph 1011.9mb 70f 69f
12:40 4.5ft  -  5s 18 22 mph 1012mb 70f 69f
Mi 02/22 11:50 4.5ft 6s 5s 16 20 mph 1012.4mb 69f 69f
11:40 4.5ft  -  5s 16 20 mph 1012.4mb 69f 69f
10:50 4.5ft 6s 5s 16 20 mph 1012.8mb 69f 69f
10:40  -   -   -  16 20 mph 1012.9mb 69f 69f
9:50 4.5ft 9s 5s 13 18 mph 1013.4mb 69f 69f
9:40 4.5ft  -  5s 13 16 mph 1013.4mb 69f 69f
8:50 4.5ft 9s 5s 13 18 mph 1013.8mb 69f 69f
8:30  -   -   -  13 16 mph 1013.9mb 69f 69f
7:50 4ft 9s 5s 13 18 mph 1013.5mb 69f 69f
7:40  -   -   -  16 18 mph 1013.5mb 69f 69f
6:50 4.5ft 5s 5s 13 16 mph 1013mb 69f 69f
6:40 4.5ft  -  5s 13 18 mph 1013mb 69f 69f
5:50 4.5ft 6s 5s 13 18 mph - 69f 69f
5:40 4.5ft  -  5s 13 18 mph 1013mb 69f 69f
4:50 4.5ft 8s 5s 16 20 mph 1013mb 69f 69f
3:50 4.5ft 8s 5s 16 22 mph 1012.8mb 69f 69f
3:40  -   -   -  16 20 mph 1012.6mb 69f 69f
2:50 4ft 7s 4s 16 20 mph 1012.9mb 69f 69f
2:40 4ft  -  4s 16 22 mph 1013mb 69f 69f
1:50 3.5ft 4s 4s 16 20 mph 1013.5mb 69f 69f
1:40  -   -   -  18 20 mph 1013.8mb 69f 69f
12:50 3.5ft 8s 4s 18 20 mph 1014.5mb 68f 69f
12:40  -   -   -  18 22 mph 1014.6mb 68f 68f
11:50 3.5ft 8s 4s 18 22 mph 1015mb 68f 69f
11:40 3.5ft  -  4s 16 22 mph 1015.1mb 68f 69f
10:50 3.5ft 8s 5s 16 20 mph 1015.5mb 67f 69f
9:50 3.5ft 8s 5s 13 18 mph 1015.8mb 67f 69f
9:40 3.5ft  -  5s 16 20 mph 1015.9mb 67f 69f
8:50 4ft 5s 5s 13 16 mph 1016.1mb 67f 69f
8:40  -   -   -  13 16 mph 1016.3mb 67f 69f
7:50 3.5ft 8s 5s 16 18 mph 1016.3mb 67f 68f
7:40  -   -   -  13 18 mph 1016.3mb 68f 68f
7:30  -   -   -  16 18 mph 1016.3mb 68f 68f
6:40 3.5ft  -  5s 16 20 mph 1016mb 68f 68f
5:50 3.5ft 7s 5s 9 11 mph 1016mb 69f 67f
5:40 3.5ft  -  5s 11 13 mph 1016.1mb 69f 67f
5:30  -   -   -  13 18 mph 1016.3mb 69f 67f
5:20  -   -   -  16 18 mph 1016.1mb 69f 68f
5:10  -   -   -  13 16 mph 1016.3mb 69f 68f
5:00  -   -   -  13 18 mph 1016.3mb 69f 68f
4:50 3.5ft 8s 5s 13 18 mph 1016.1mb 69f 68f
4:40 3.5ft  -  5s 11 16 mph 1016mb 69f 68f
4:30  -   -   -  11 13 mph 1016.1mb 69f 68f
4:20  -   -   -  11 16 mph 1016mb 69f 68f
4:10  -   -   -  11 13 mph 1016.1mb 69f 68f
4:00  -   -   -  11 13 mph 1016.3mb 69f 69f
3:50 3.5ft 8s 5s 9 11 mph 1016.1mb 69f 69f
3:40 3.5ft  -  5s 9 11 mph 1016.1mb 69f 68f
3:30  -   -   -  11 13 mph 1016.3mb 69f 68f
3:20  -   -   -  11 16 mph 1016.3mb 69f 68f
3:10  -   -   -  13 16 mph 1016.3mb 69f 68f
3:00  -   -   -  13 16 mph 1016.4mb 69f 68f
2:50 3.5ft 8s 4s 13 16 mph 1016.5mb 69f 68f
2:40 3.5ft  -  4s 13 18 mph 1016.5mb 69f 68f
2:30  -   -   -  13 16 mph 1016.5mb 69f 68f
2:20  -   -   -  13 16 mph 1016.6mb 69f 68f
2:10  -   -   -  13 16 mph 1016.8mb 69f 68f
2:00  -   -   -  13 16 mph 1016.8mb 69f 68f
1:50 4ft 5s 4s 13 18 mph 1016.8mb 69f 68f
1:40 4ft  -  4s 16 18 mph 1016.9mb 69f 68f
1:30  -   -   -  16 20 mph 1017mb 69f 68f
1:20  -   -   -  16 18 mph 1017.1mb 69f 68f
1:10  -   -   -  16 20 mph 1017.3mb 69f 68f
1:00  -   -   -  16 20 mph 1017.4mb 69f 68f
12:50 4ft 5s 4s 16 20 mph 1017.4mb 69f 68f
12:40 4ft  -  4s 16 20 mph 1017.5mb 68f 68f
12:30  -   -   -  16 20 mph 1017.5mb 68f 68f
12:20  -   -   -  16 20 mph 1017.6mb 68f 68f
12:10  -   -   -  16 20 mph 1017.6mb - -
12:00  -   -   -  16 20 mph 1017.8mb 68f 68f
Di 02/21 11:50 4ft 4s 4s 16 20 mph 1018mb 68f 68f
11:40  -   -   -  16 20 mph 1018mb 68f 68f
11:30  -   -   -  16 20 mph 1018.1mb 68f 68f
11:20  -   -   -  18 22 mph 1018.3mb 68f 68f
11:10  -   -   -  16 20 mph 1018.5mb 68f 68f
11:00  -   -   -  16 20 mph 1018.5mb 68f 68f
10:50 4ft 7s 4s 16 20 mph 1018.8mb 68f 68f
10:40 4ft  -  4s 16 20 mph 1019mb 68f 68f
10:30  -   -   -  16 20 mph 1018.9mb 68f 68f
10:20  -   -   -  18 22 mph 1019mb 68f 68f
10:10  -   -   -  18 22 mph 1019mb 68f 68f
10:00  -   -   -  18 22 mph 1019mb 68f 68f
9:50 3.5ft 8s 4s 18 22 mph 1019mb 68f 68f
9:40  -   -   -  18 22 mph 1019mb 68f 68f
9:30  -   -   -  18 22 mph 1019mb 68f 68f
9:20  -   -   -  16 20 mph 1019.1mb 68f 68f
9:10  -   -   -  16 20 mph 1019.1mb 68f 68f
9:00  -   -   -  16 22 mph 1019.1mb 68f 68f
8:50 3.5ft 7s 4s 11 16 mph 1019mb 68f 68f
8:40  -   -   -  13 16 mph 1019.4mb 68f 68f
8:30  -   -   -  11 16 mph 1019.5mb 68f 68f
8:20  -   -   -  13 16 mph - 68f 68f
8:10  -   -   -  13 18 mph 1019.8mb 68f 68f
8:00  -   -   -  13 16 mph 1019.5mb 68f 68f
7:50 3.5ft 7s 5s 16 20 mph 1019.4mb 68f 68f
7:40 3.5ft  -  5s 16 20 mph 1019.4mb 68f 68f
7:30  -   -   -  13 18 mph 1019.6mb 68f 68f
7:20  -   -   -  16 18 mph 1019.5mb 68f 68f
7:10  -   -   -  16 18 mph 1019.5mb 68f 68f
7:00  -   -   -  13 18 mph 1019.6mb 68f 68f
6:50 3.5ft 8s 5s 16 18 mph 1019.6mb 68f 68f
6:40 3.5ft  -  5s 13 18 mph 1019.5mb 68f 68f
6:30  -   -   -  16 18 mph 1019.6mb 68f 68f
6:20  -   -   -  16 20 mph 1019.5mb 68f 68f
6:10  -   -   -  16 18 mph 1019.5mb 68f 68f
6:00  -   -   -  13 18 mph 1019.5mb 68f 68f
5:50 3.5ft 8s 5s 13 18 mph 1019.6mb 68f 68f
5:40 3.5ft  -  5s 13 18 mph 1019.6mb 68f 68f
5:30  -   -   -  13 16 mph 1019.9mb 68f 68f
5:20  -   -   -  13 18 mph 1019.9mb 68f 68f
5:10  -   -   -  16 18 mph 1019.5mb - 68f
5:00  -   -   -  13 18 mph 1019.5mb 68f 68f
4:50 4ft 8s 5s 16 18 mph 1019.4mb 68f 68f
4:40  -   -   -  16 18 mph 1019.5mb 68f 67f
4:30  -   -   -  11 18 mph 1019.5mb 68f 66f
4:20  -   -   -  13 20 mph 1019.6mb 68f 65f
4:10  -   -   -  16 18 mph 1019.9mb 68f 64f
4:00  -   -   -  16 20 mph 1019.8mb 68f 64f
3:50 4ft 6s 4s 18 20 mph 1019.6mb 68f 64f
3:40  -   -   -  18 22 mph 1019.5mb 68f 64f
3:30  -   -   -  18 22 mph 1019.8mb 68f 64f
3:20  -   -   -  18 20 mph 1019.8mb 68f 64f
3:10  -   -   -  18 22 mph 1020mb 68f 64f
3:00  -   -   -  18 20 mph 1019.9mb 68f 64f
2:50 4ft 6s 5s 18 22 mph 1019.9mb 68f 64f
2:40 4ft  -  5s 18 22 mph 1020mb 68f 64f
2:30  -   -   -  18 20 mph 1020mb 68f 64f
2:20  -   -   -  18 22 mph 1020mb 68f 63f
2:10  -   -   -  18 20 mph 1020.3mb 68f 63f
2:00  -   -   -  18 22 mph 1020.4mb 68f 63f
1:50 4ft 6s 5s 18 20 mph 1020.5mb 67f 63f
1:40 4ft  -  5s 18 20 mph 1020.6mb 67f 63f
1:30  -   -   -  18 20 mph 1020.8mb 67f 63f
1:20  -   -   -  16 20 mph 1021mb 67f 63f
1:10  -   -   -  16 20 mph 1021.1mb 67f 63f
1:00  -   -   -  16 18 mph 1021.3mb 67f 63f
12:50 4ft 6s 5s 16 20 mph 1021.5mb 67f 63f
12:40 4ft  -  5s 16 20 mph 1021.5mb 67f 62f
12:30  -   -   -  16 20 mph 1021.6mb 67f 62f
12:20  -   -   -  16 18 mph 1022mb 67f 62f
12:10  -   -   -  16 20 mph 1022.1mb 67f 62f
12:00  -   -   -  16 18 mph 1022.5mb 67f 62f
11:50 4ft 6s 4s 16 18 mph 1022.5mb 67f 62f
11:40  -   -   -  16 18 mph 1022.6mb 67f 62f
11:30  -   -   -  16 20 mph 1022.9mb 67f 62f
11:20  -   -   -  16 18 mph 1023mb 67f 62f
11:10  -   -   -  16 18 mph 1023.1mb 67f 62f
11:00  -   -   -  16 18 mph 1023.4mb 67f 62f
10:50 4ft 6s 5s 16 20 mph 1023.4mb 67f 63f
10:40 4ft  -  5s 16 20 mph 1023.4mb 67f 63f
10:30  -   -   -  16 20 mph 1023.4mb 67f 64f
10:20  -   -   -  16 18 mph 1023.3mb 67f 64f
10:10  -   -   -  16 18 mph 1023mb 67f 64f
10:00  -   -   -  16 18 mph 1023mb 67f 64f
9:50 4.5ft 6s 5s 16 18 mph 1023mb 67f 65f
9:40 4.5ft  -  5s 13 18 mph 1023mb 67f 65f
9:30  -   -   -  13 18 mph 1023mb 67f 65f
9:20  -   -   -  13 16 mph 1023mb 67f 65f
9:10  -   -   -  13 18 mph 1023mb 67f 65f
9:00  -   -   -  13 16 mph 1023mb 67f 65f
8:50 4.5ft 6s 5s 13 18 mph 1023.1mb 67f 66f
8:40  -   -   -  13 16 mph 1023.3mb 67f 66f
8:30  -   -   -  13 18 mph 1023.4mb 67f 66f
8:20  -   -   -  13 18 mph 1023.3mb 67f 66f
8:10  -   -   -  13 18 mph 1023.1mb 67f 66f
8:00  -   -   -  13 18 mph 1023mb 67f 66f
7:50 4.5ft 6s 5s 16 18 mph 1023mb 67f 66f
7:40 4.5ft  -  5s 16 18 mph 1023mb 67f 66f
7:30  -   -   -  13 18 mph 1023mb 67f 66f
7:20  -   -   -  16 20 mph 1023mb 67f 66f
7:10  -   -   -  16 18 mph 1023mb 67f 66f
7:00  -   -   -  16 20 mph 1023mb 67f 66f
6:50 4.5ft 6s 5s 16 20 mph 1023mb 67f 66f
6:40 4.5ft  -  5s 16 20 mph 1022.9mb 67f 66f
6:30  -   -   -  18 20 mph 1022.8mb 67f 66f
6:20  -   -   -  18 22 mph 1022.6mb 67f 66f
6:10  -   -   -  16 20 mph 1022.5mb 67f 66f
6:00  -   -   -  16 20 mph 1022.6mb 67f 66f
5:50 4.5ft 6s 5s 16 20 mph 1022.5mb 67f 66f
5:40  -   -   -  18 20 mph 1022.5mb 67f 66f
5:30  -   -   -  16 20 mph 1022.5mb 67f 66f
5:20  -   -   -  18 20 mph 1022.4mb 67f 66f
5:10  -   -   -  18 20 mph 1022.3mb 67f 66f
5:00  -   -   -  18 22 mph 1022mb 67f 66f
4:50 4.5ft 6s 5s 18 22 mph 1022mb 67f 66f
4:40 4.5ft  -  5s 18 22 mph 1022mb 67f 66f
4:30  -   -   -  18 20 mph 1022.1mb - -
4:20  -   -   -  16 20 mph 1022.1mb 67f 66f
4:10  -   -   -  16 20 mph 1022.1mb - 66f
4:00  -   -   -  18 22 mph 1022mb 67f 66f
3:50 4.5ft 6s 5s 18 22 mph 1022mb 67f 66f
3:40  -   -   -  18 22 mph 1022mb 67f 66f
3:30  -   -   -  18 22 mph 1022mb 67f 67f
3:20  -   -   -  18 20 mph 1021.9mb 66f 67f
3:10  -   -   -  18 20 mph 1022mb 66f 67f
3:00  -   -   -  18 22 mph 1022mb 66f 67f
2:50 4ft 5s 5s 18 20 mph 1022mb 66f 67f
2:40 4ft  -  5s 16 20 mph 1022mb 67f 67f
2:30  -   -   -  18 22 mph 1022.1mb 66f 66f
2:20  -   -   -  18 20 mph 1022.1mb 66f 66f
2:10  -   -   -  16 22 mph 1022.4mb 66f 66f
2:00  -   -   -  16 20 mph 1022.4mb 66f 66f
1:50 3.5ft 6s 4s 16 20 mph 1022.5mb 66f 66f
1:40  -   -   -  16 20 mph 1022.4mb 66f 66f
1:30  -   -   -  16 20 mph 1022.4mb 66f 66f
1:20  -   -   -  18 20 mph 1022.4mb 66f 66f
1:10  -   -   -  16 20 mph 1022.4mb 66f 66f
1:00  -   -   -  18 20 mph 1022.4mb 66f 66f
12:50 3.5ft 6s 4s 18 20 mph 1022.3mb 66f 66f
12:40 3.5ft  -  4s 18 20 mph 1022.3mb 66f 66f
12:30  -   -   -  18 20 mph 1022.3mb 66f 66f
12:20  -   -   -  16 20 mph 1022.3mb 66f 66f
12:10  -   -   -  16 20 mph 1022.5mb 66f 66f
12:00  -   -   -  16 20 mph 1022.4mb 66f 66f
Mo 02/20 11:50 3.5ft 6s 4s 18 20 mph 1022.1mb 65f 66f
11:40 3.5ft  -  4s 18 20 mph 1022mb 65f 66f
11:30  -   -   -  18 22 mph 1022mb 65f 66f
11:20  -   -   -  18 22 mph 1021.8mb 65f 66f
11:10  -   -   -  18 22 mph 1022mb 65f 66f
11:00  -   -   -  18 20 mph 1022.1mb 65f 66f
10:50 4ft 6s 5s 18 20 mph 1022.3mb 65f 66f
10:40  -   -   -  16 20 mph 1022.4mb 65f 66f
10:30  -   -   -  16 20 mph 1022.4mb 65f 66f
10:20  -   -   -  16 18 mph 1022.4mb 65f 66f
10:10  -   -   -  16 18 mph 1022.3mb 65f 66f
10:00  -   -   -  16 18 mph 1022.4mb 65f 66f
9:50 3.5ft 6s 4s 16 18 mph 1022.4mb 65f 66f
9:40 3.5ft  -  4s 16 18 mph 1022.5mb 65f 66f
9:30  -   -   -  13 18 mph 1022.4mb 65f 66f
9:20  -   -   -  13 18 mph 1022.4mb 65f 66f
9:10  -   -   -  13 18 mph 1022.1mb 65f 66f
9:00  -   -   -  13 16 mph 1022mb 65f 66f
8:50 3.5ft 6s 5s 11 13 mph 1021.9mb 65f 66f
8:40 3.5ft  -  5s 11 13 mph 1021.8mb 65f 65f
8:30  -   -   -  11 13 mph 1021.8mb 65f 65f
8:20  -   -   -  9 11 mph 1021.9mb 65f 66f
8:10  -   -   -  9 11 mph 1021.8mb - 66f
8:00  -   -   -  11 13 mph 1021.8mb 65f 66f
7:50 3.5ft 6s 4s 11 16 mph 1021.9mb 65f 66f
7:40 3.5ft  -  4s 11 16 mph 1021.9mb - 66f
7:30  -   -   -  13 16 mph 1021.9mb 65f 65f
7:20  -   -   -  13 18 mph 1021.9mb 65f 65f
7:10  -   -   -  13 18 mph 1021.8mb 65f 65f
7:00  -   -   -  13 18 mph 1022mb 65f 65f
6:50 3.5ft 5s 4s 13 18 mph 1021.9mb 65f 65f
6:40 3.5ft  -  4s 16 18 mph 1021.8mb 65f 65f
6:30  -   -   -  16 18 mph 1021.9mb 65f 65f
6:20  -   -   -  16 18 mph 1021.8mb 65f 65f
6:10  -   -   -  16 20 mph 1021.8mb 65f 65f
6:00  -   -   -  16 20 mph 1021.6mb 65f 65f
5:50 3ft 5s 4s 16 20 mph 1021.5mb 65f 65f
5:40  -   -   -  16 20 mph 1021.6mb 65f 65f
5:30  -   -   -  16 20 mph 1021.8mb 65f 65f
5:20  -   -   -  16 20 mph 1021.5mb 65f 65f
5:10  -   -   -  18 20 mph 1021.5mb 65f 65f
5:00  -   -   -  18 20 mph 1021.5mb 65f 64f
4:50 2.5ft 4s 4s 18 20 mph 1021.3mb 65f 64f
4:40 2.5ft  -  4s 16 18 mph 1021.4mb 65f 64f
4:30  -   -   -  16 20 mph 1021mb 66f 64f
4:20  -   -   -  16 20 mph 1021mb 66f 64f
4:10  -   -   -  18 20 mph 1020.8mb - 64f
4:00  -   -   -  16 18 mph 1021mb 66f 64f
3:50 2.5ft 5s 4s 16 18 mph 1021.1mb 66f 64f
3:40 2.5ft  -  4s 16 18 mph 1021.1mb 66f 64f
3:30  -   -   -  13 16 mph 1021.1mb 66f 64f
3:20  -   -   -  13 16 mph 1021mb 65f 64f
3:10  -   -   -  13 16 mph 1021.1mb 65f 63f
3:00  -   -   -  13 16 mph 1021mb 65f 63f
2:50 2ft 5s 4s 13 16 mph 1020.9mb 65f 63f
2:40 2ft  -  4s 13 16 mph 1021mb 65f 63f
2:30  -   -   -  11 16 mph 1021mb 65f 63f
2:20  -   -   -  13 16 mph 1021mb 65f 63f
2:10  -   -   -  13 16 mph 1020.9mb 65f 63f
2:00  -   -   -  11 16 mph 1021mb 65f 63f
1:50 2ft 4s 4s 13
mph
1021mb 65f 62f
1:40 2ft  -  4s 13
mph
1021.1mb 65f 62f
1:30  -   -   -  11 13 mph 1021mb 65f 63f
1:20  -   -   -  11 13 mph 1020.9mb 65f 63f
1:10  -   -   -  11 13 mph 1020.9mb 65f 63f
1:00  -   -   -  13 16 mph 1021mb 65f 62f
12:50 2ft 4s 4s 13 16 mph 1021mb 65f 63f
12:40  -   -   -  13 16 mph 1021mb 65f 62f
12:30  -   -   -  13 16 mph 1021mb 65f 62f
12:20  -   -   -  13 16 mph 1021.1mb 65f 62f
12:10  -   -   -  13 16 mph 1021.4mb 65f 62f
12:00  -   -   -  13 16 mph 1021.3mb 65f 62f
11:50 2ft 3s 3s 13 16 mph 1021.8mb 65f 61f
11:40 2ft  -  3s 11 16 mph 1022mb 65f 61f
11:30  -   -   -  11 16 mph 1022mb 65f 61f
11:20  -   -   -  13
mph
1022mb 65f 61f
11:10  -   -   -  13 16 mph 1022mb 65f 61f
11:00  -   -   -  13 16 mph 1021.9mb 65f 60f
10:50 2ft 4s 3s 13 18 mph 1022mb 65f 61f
10:40 2ft  -  3s 13 18 mph 1022mb 65f 60f